LNK146 EGPH-EGLL
Flight info
| Callsign | LNK146 |
|---|---|
| Flight time | 0h 54m |
| Altitude | 33000 |
| Route | GOSAM P600 FENIK L612 NAVSO DCT AKOMU DCT VAMEB DCT NUGRA |
| Aircraft | A35K/H-SDE2E3GHIJ3J4J5LM1ORWXY/LB1D1 |
Departure
| Time | 2026-04-21 08:34 |
|---|---|
| Airport | Edinburgh Airport (EGPH) |
Arrival
| Time | 2026-04-21 09:28 |
|---|---|
| Airport | London Heathrow Airport (EGLL) |
| Time | Latitude | Longitude | Altitude | Speed | Heading |
|---|---|---|---|---|---|
| 2026-04-21 08:17 | 55.95025 | -3.36050 | 113 ft | 0 kts | 249° |
| 2026-04-21 08:23 | 55.95031 | -3.36023 | 109 ft | 4 kts | 249° |
| 2026-04-21 08:23 | 55.95040 | -3.35979 | 109 ft | 4 kts | 246° |
| 2026-04-21 08:23 | 55.95052 | -3.35936 | 108 ft | 4 kts | 252° |
| 2026-04-21 08:23 | 55.95056 | -3.35897 | 115 ft | 4 kts | 272° |
| 2026-04-21 08:24 | 55.95050 | -3.35851 | 109 ft | 5 kts | 296° |
| 2026-04-21 08:24 | 55.95042 | -3.35823 | 110 ft | 2 kts | 299° |
| 2026-04-21 08:26 | 55.95043 | -3.35826 | 110 ft | 2 kts | 299° |
| 2026-04-21 08:26 | 55.95059 | -3.35880 | 110 ft | 8 kts | 299° |
| 2026-04-21 08:27 | 55.95094 | -3.36005 | 108 ft | 15 kts | 289° |
| 2026-04-21 08:27 | 55.95126 | -3.36221 | 110 ft | 21 kts | 267° |
| 2026-04-21 08:27 | 55.95065 | -3.36480 | 111 ft | 24 kts | 241° |
| 2026-04-21 08:27 | 55.94970 | -3.36773 | 110 ft | 30 kts | 240° |
| 2026-04-21 08:28 | 55.94852 | -3.37120 | 107 ft | 35 kts | 238° |
| 2026-04-21 08:28 | 55.94718 | -3.37503 | 114 ft | 37 kts | 238° |
| 2026-04-21 08:28 | 55.94578 | -3.37911 | 115 ft | 40 kts | 240° |
| 2026-04-21 08:28 | 55.94441 | -3.38323 | 115 ft | 35 kts | 239° |
| 2026-04-21 08:29 | 55.94367 | -3.38541 | 118 ft | 7 kts | 239° |
| 2026-04-21 08:29 | 55.94336 | -3.38633 | 120 ft | 10 kts | 239° |
| 2026-04-21 08:29 | 55.94297 | -3.38748 | 120 ft | 0 kts | 240° |
| 2026-04-21 08:32 | 55.94293 | -3.38763 | 120 ft | 4 kts | 240° |
| 2026-04-21 08:32 | 55.94288 | -3.38797 | 122 ft | 3 kts | 266° |
| 2026-04-21 08:32 | 55.94298 | -3.38843 | 121 ft | 6 kts | 293° |
| 2026-04-21 08:33 | 55.94327 | -3.38898 | 121 ft | 9 kts | 324° |
| 2026-04-21 08:33 | 55.94400 | -3.38938 | 121 ft | 14 kts | 19° |
| 2026-04-21 08:33 | 55.94463 | -3.38820 | 119 ft | 9 kts | 58° |
| 2026-04-21 08:33 | 55.94551 | -3.38560 | 116 ft | 65 kts | 59° |
| 2026-04-21 08:34 | 55.95003 | -3.37231 | 325 ft | 165 kts | 59° |
| 2026-04-21 08:34 | 55.95652 | -3.35329 | 1601 ft | 191 kts | 60° |
| 2026-04-21 08:34 | 55.96524 | -3.33364 | 2297 ft | 214 kts | 47° |
| 2026-04-21 08:34 | 55.97664 | -3.31518 | 3172 ft | 226 kts | 43° |
| 2026-04-21 08:35 | 55.98867 | -3.29645 | 4146 ft | 233 kts | 43° |
| 2026-04-21 08:35 | 56.00184 | -3.28072 | 5098 ft | 243 kts | 28° |
| 2026-04-21 08:35 | 56.01578 | -3.27501 | 5911 ft | 254 kts | 5° |
| 2026-04-21 08:35 | 56.03346 | -3.28211 | 6773 ft | 272 kts | 336° |
| 2026-04-21 08:36 | 56.04771 | -3.30529 | 7632 ft | 286 kts | 304° |
| 2026-04-21 08:36 | 56.05361 | -3.33898 | 8490 ft | 294 kts | 271° |
| 2026-04-21 08:36 | 56.04907 | -3.37453 | 9425 ft | 292 kts | 237° |
| 2026-04-21 08:36 | 56.03703 | -3.40272 | 10393 ft | 289 kts | 223° |
| 2026-04-21 08:37 | 56.02183 | -3.42657 | 11099 ft | 296 kts | 209° |
| 2026-04-21 08:37 | 56.00260 | -3.44083 | 11498 ft | 307 kts | 185° |
| 2026-04-21 08:37 | 55.98084 | -3.44238 | 11930 ft | 320 kts | 172° |
| 2026-04-21 08:37 | 55.95837 | -3.43780 | 12542 ft | 329 kts | 167° |
| 2026-04-21 08:38 | 55.93574 | -3.43039 | 13261 ft | 334 kts | 165° |
| 2026-04-21 08:38 | 55.91275 | -3.42201 | 14049 ft | 339 kts | 164° |
| 2026-04-21 08:38 | 55.88938 | -3.41366 | 14771 ft | 344 kts | 165° |
| 2026-04-21 08:38 | 55.86565 | -3.40570 | 15480 ft | 348 kts | 166° |
| 2026-04-21 08:39 | 55.84165 | -3.39817 | 16194 ft | 352 kts | 166° |
| 2026-04-21 08:39 | 55.81736 | -3.39092 | 16897 ft | 356 kts | 167° |
| 2026-04-21 08:39 | 55.79272 | -3.38375 | 17611 ft | 360 kts | 167° |
| 2026-04-21 08:39 | 55.76779 | -3.37658 | 18314 ft | 364 kts | 167° |
| 2026-04-21 08:40 | 55.74305 | -3.36948 | 18980 ft | 368 kts | 167° |
| 2026-04-21 08:40 | 55.71722 | -3.36205 | 19599 ft | 372 kts | 167° |
| 2026-04-21 08:40 | 55.69183 | -3.35475 | 20161 ft | 376 kts | 167° |
| 2026-04-21 08:40 | 55.66551 | -3.34717 | 20796 ft | 379 kts | 167° |
| 2026-04-21 08:41 | 55.63973 | -3.33974 | 21405 ft | 382 kts | 167° |
| 2026-04-21 08:41 | 55.61337 | -3.33213 | 22029 ft | 385 kts | 167° |
| 2026-04-21 08:41 | 55.58674 | -3.32446 | 22635 ft | 389 kts | 167° |
| 2026-04-21 08:41 | 55.55993 | -3.31674 | 23228 ft | 392 kts | 167° |
| 2026-04-21 08:42 | 55.53300 | -3.30899 | 23824 ft | 395 kts | 167° |
| 2026-04-21 08:42 | 55.50560 | -3.30114 | 24377 ft | 399 kts | 167° |
| 2026-04-21 08:42 | 55.47805 | -3.29325 | 24903 ft | 403 kts | 167° |
| 2026-04-21 08:42 | 55.45039 | -3.28535 | 25474 ft | 405 kts | 167° |
| 2026-04-21 08:43 | 55.42233 | -3.27729 | 26014 ft | 409 kts | 167° |
| 2026-04-21 08:43 | 55.39417 | -3.26915 | 26562 ft | 413 kts | 167° |
| 2026-04-21 08:43 | 55.36557 | -3.26099 | 27178 ft | 417 kts | 167° |
| 2026-04-21 08:43 | 55.33718 | -3.25298 | 27797 ft | 421 kts | 167° |
| 2026-04-21 08:44 | 55.30771 | -3.24467 | 28436 ft | 425 kts | 167° |
| 2026-04-21 08:44 | 55.27873 | -3.23650 | 29082 ft | 430 kts | 167° |
| 2026-04-21 08:44 | 55.24913 | -3.22814 | 29710 ft | 434 kts | 168° |
| 2026-04-21 08:44 | 55.21928 | -3.21972 | 30595 ft | 433 kts | 168° |
| 2026-04-21 08:45 | 55.18949 | -3.21132 | 31207 ft | 435 kts | 168° |
| 2026-04-21 08:45 | 55.15936 | -3.20284 | 31835 ft | 437 kts | 169° |
| 2026-04-21 08:45 | 55.12934 | -3.19441 | 32461 ft | 437 kts | 169° |
| 2026-04-21 08:45 | 55.09926 | -3.18596 | 33103 ft | 438 kts | 169° |
| 2026-04-21 08:46 | 55.06940 | -3.17759 | 33444 ft | 444 kts | 169° |
| 2026-04-21 08:46 | 55.03848 | -3.16893 | 33504 ft | 459 kts | 169° |
| 2026-04-21 08:46 | 55.00616 | -3.15990 | 33488 ft | 474 kts | 169° |
| 2026-04-21 08:47 | 54.94044 | -3.14157 | 33500 ft | 477 kts | 171° |
| 2026-04-21 08:47 | 54.87481 | -3.12336 | 33490 ft | 477 kts | 171° |
| 2026-04-21 08:48 | 54.80959 | -3.10532 | 33487 ft | 477 kts | 171° |
| 2026-04-21 08:48 | 54.74392 | -3.08719 | 33488 ft | 478 kts | 171° |
| 2026-04-21 08:49 | 54.67827 | -3.06911 | 33482 ft | 479 kts | 171° |
| 2026-04-21 08:49 | 54.61213 | -3.05097 | 33475 ft | 482 kts | 171° |
| 2026-04-21 08:50 | 54.54567 | -3.03278 | 33476 ft | 483 kts | 172° |
| 2026-04-21 08:50 | 54.47933 | -3.01472 | 33468 ft | 482 kts | 171° |
| 2026-04-21 08:51 | 54.41287 | -2.99662 | 33485 ft | 485 kts | 173° |
| 2026-04-21 08:51 | 54.34598 | -2.97852 | 33465 ft | 487 kts | 173° |
| 2026-04-21 08:52 | 54.27940 | -2.96060 | 33462 ft | 487 kts | 173° |
| 2026-04-21 08:52 | 54.21203 | -2.94246 | 33463 ft | 488 kts | 172° |
| 2026-04-21 08:53 | 54.14657 | -2.91320 | 33447 ft | 492 kts | 160° |
| 2026-04-21 08:53 | 54.08318 | -2.86863 | 33439 ft | 494 kts | 158° |
| 2026-04-21 08:54 | 54.02023 | -2.82223 | 33456 ft | 494 kts | 158° |
| 2026-04-21 08:54 | 53.95527 | -2.78435 | 33444 ft | 492 kts | 165° |
| 2026-04-21 08:55 | 53.88967 | -2.74918 | 33436 ft | 495 kts | 165° |
| 2026-04-21 08:55 | 53.82367 | -2.71419 | 33438 ft | 496 kts | 165° |
| 2026-04-21 08:56 | 53.75827 | -2.67974 | 33435 ft | 496 kts | 165° |
| 2026-04-21 08:56 | 53.69234 | -2.64514 | 33430 ft | 496 kts | 166° |
| 2026-04-21 08:57 | 53.62625 | -2.61061 | 33437 ft | 498 kts | 166° |
| 2026-04-21 08:57 | 53.55988 | -2.57603 | 33442 ft | 499 kts | 165° |
| 2026-04-21 08:58 | 53.49348 | -2.54155 | 33425 ft | 500 kts | 165° |
| 2026-04-21 08:58 | 53.42684 | -2.50707 | 33425 ft | 500 kts | 165° |
| 2026-04-21 08:59 | 53.36035 | -2.47278 | 33427 ft | 500 kts | 165° |
| 2026-04-21 08:59 | 53.29416 | -2.43874 | 33427 ft | 500 kts | 165° |
| 2026-04-21 09:00 | 53.22798 | -2.40483 | 33416 ft | 500 kts | 165° |
| 2026-04-21 09:00 | 53.16099 | -2.37061 | 33429 ft | 502 kts | 166° |
| 2026-04-21 09:01 | 53.09403 | -2.33652 | 33427 ft | 502 kts | 166° |
| 2026-04-21 09:01 | 53.02774 | -2.29988 | 33399 ft | 506 kts | 158° |
| 2026-04-21 09:01 | 52.99701 | -2.27130 | 32990 ft | 505 kts | 150° |
| 2026-04-21 09:02 | 52.96752 | -2.23984 | 32503 ft | 505 kts | 149° |
| 2026-04-21 09:02 | 52.93795 | -2.20827 | 31986 ft | 504 kts | 150° |
| 2026-04-21 09:02 | 52.90849 | -2.17711 | 31465 ft | 502 kts | 150° |
| 2026-04-21 09:03 | 52.84974 | -2.11545 | 30486 ft | 496 kts | 150° |
| 2026-04-21 09:03 | 52.82071 | -2.08516 | 29918 ft | 492 kts | 150° |
| 2026-04-21 09:03 | 52.79187 | -2.05513 | 29356 ft | 486 kts | 150° |
| 2026-04-21 09:03 | 52.76345 | -2.02559 | 28800 ft | 479 kts | 150° |
| 2026-04-21 09:04 | 52.73549 | -1.99658 | 28283 ft | 470 kts | 150° |
| 2026-04-21 09:04 | 52.70799 | -1.96810 | 27802 ft | 464 kts | 150° |
| 2026-04-21 09:04 | 52.68108 | -1.94028 | 27298 ft | 461 kts | 149° |
| 2026-04-21 09:04 | 52.65401 | -1.91234 | 26847 ft | 457 kts | 149° |
| 2026-04-21 09:05 | 52.62722 | -1.88473 | 26384 ft | 453 kts | 149° |
| 2026-04-21 09:05 | 52.60063 | -1.85737 | 25922 ft | 448 kts | 149° |
| 2026-04-21 09:05 | 52.57426 | -1.83026 | 25470 ft | 444 kts | 149° |
| 2026-04-21 09:05 | 52.54821 | -1.80352 | 25045 ft | 439 kts | 149° |
| 2026-04-21 09:06 | 52.52243 | -1.77710 | 24637 ft | 435 kts | 149° |
| 2026-04-21 09:06 | 52.49685 | -1.75091 | 24234 ft | 432 kts | 149° |
| 2026-04-21 09:06 | 52.47139 | -1.72489 | 23819 ft | 431 kts | 149° |
| 2026-04-21 09:06 | 52.44597 | -1.69894 | 23352 ft | 428 kts | 148° |
| 2026-04-21 09:07 | 52.42071 | -1.67319 | 22902 ft | 424 kts | 148° |
| 2026-04-21 09:07 | 52.39578 | -1.64781 | 22462 ft | 420 kts | 148° |
| 2026-04-21 09:07 | 52.37103 | -1.62265 | 22049 ft | 416 kts | 148° |
| 2026-04-21 09:07 | 52.34657 | -1.59782 | 21619 ft | 413 kts | 148° |
| 2026-04-21 09:08 | 52.32223 | -1.57315 | 21208 ft | 411 kts | 148° |
| 2026-04-21 09:08 | 52.29796 | -1.54858 | 20780 ft | 408 kts | 148° |
| 2026-04-21 09:08 | 52.27414 | -1.52450 | 20404 ft | 405 kts | 147° |
| 2026-04-21 09:08 | 52.25030 | -1.50040 | 20035 ft | 402 kts | 148° |
| 2026-04-21 09:09 | 52.22659 | -1.47634 | 19688 ft | 398 kts | 146° |
| 2026-04-21 09:09 | 52.20473 | -1.44990 | 19344 ft | 385 kts | 139° |
| 2026-04-21 09:09 | 52.18458 | -1.42187 | 19013 ft | 374 kts | 137° |
| 2026-04-21 09:09 | 52.16528 | -1.39479 | 18686 ft | 363 kts | 137° |
| 2026-04-21 09:10 | 52.15279 | -1.37730 | 18445 ft | 357 kts | 137° |
| 2026-04-21 09:10 | 52.13416 | -1.35134 | 18090 ft | 347 kts | 136° |
| 2026-04-21 09:10 | 52.11013 | -1.31785 | 17562 ft | 335 kts | 137° |
| 2026-04-21 09:10 | 52.09255 | -1.29336 | 17192 ft | 327 kts | 137° |
| 2026-04-21 09:11 | 52.08116 | -1.27755 | 16978 ft | 322 kts | 136° |
| 2026-04-21 09:11 | 52.06434 | -1.25420 | 16625 ft | 314 kts | 137° |
| 2026-04-21 09:11 | 52.04281 | -1.22436 | 16276 ft | 300 kts | 136° |
| 2026-04-21 09:11 | 52.02712 | -1.20264 | 16017 ft | 291 kts | 135° |
| 2026-04-21 09:12 | 52.01199 | -1.18169 | 15783 ft | 283 kts | 135° |
| 2026-04-21 09:12 | 52.00187 | -1.16767 | 15610 ft | 278 kts | 137° |
| 2026-04-21 09:12 | 51.98735 | -1.14758 | 15393 ft | 271 kts | 137° |
| 2026-04-21 09:12 | 51.97320 | -1.12803 | 15335 ft | 270 kts | 136° |
| 2026-04-21 09:13 | 51.95875 | -1.10806 | 14931 ft | 275 kts | 135° |
| 2026-04-21 09:13 | 51.94439 | -1.08816 | 14713 ft | 268 kts | 135° |
| 2026-04-21 09:13 | 51.93035 | -1.06879 | 14390 ft | 265 kts | 137° |
| 2026-04-21 09:13 | 51.91631 | -1.04949 | 13994 ft | 264 kts | 137° |
| 2026-04-21 09:14 | 51.90234 | -1.03032 | 13621 ft | 261 kts | 136° |
| 2026-04-21 09:14 | 51.88691 | -1.01496 | 13208 ft | 263 kts | 158° |
| 2026-04-21 09:14 | 51.86894 | -1.00891 | 12868 ft | 263 kts | 169° |
| 2026-04-21 09:14 | 51.85081 | -1.00546 | 12470 ft | 263 kts | 170° |
| 2026-04-21 09:15 | 51.83285 | -1.00247 | 12094 ft | 261 kts | 170° |
| 2026-04-21 09:15 | 51.81478 | -0.99987 | 11725 ft | 259 kts | 171° |
| 2026-04-21 09:15 | 51.79690 | -0.99732 | 11337 ft | 258 kts | 171° |
| 2026-04-21 09:15 | 51.77913 | -0.99456 | 11053 ft | 253 kts | 169° |
| 2026-04-21 09:16 | 51.76187 | -0.99224 | 10922 ft | 242 kts | 170° |
| 2026-04-21 09:16 | 51.74554 | -0.99030 | 10825 ft | 227 kts | 171° |
| 2026-04-21 09:16 | 51.73023 | -0.98852 | 10581 ft | 215 kts | 171° |
| 2026-04-21 09:16 | 51.71541 | -0.98679 | 10135 ft | 213 kts | 171° |
| 2026-04-21 09:17 | 51.70077 | -0.98500 | 9644 ft | 210 kts | 170° |
| 2026-04-21 09:17 | 51.68626 | -0.98326 | 9170 ft | 207 kts | 170° |
| 2026-04-21 09:17 | 51.67196 | -0.98177 | 8699 ft | 205 kts | 170° |
| 2026-04-21 09:17 | 51.65776 | -0.98031 | 8250 ft | 203 kts | 171° |
| 2026-04-21 09:18 | 51.64381 | -0.97881 | 7816 ft | 200 kts | 170° |
| 2026-04-21 09:18 | 51.62989 | -0.97750 | 7370 ft | 198 kts | 171° |
| 2026-04-21 09:18 | 51.61632 | -0.97635 | 6919 ft | 198 kts | 171° |
| 2026-04-21 09:18 | 51.60247 | -0.97511 | 6460 ft | 197 kts | 171° |
| 2026-04-21 09:19 | 51.58880 | -0.97382 | 5973 ft | 196 kts | 171° |
| 2026-04-21 09:19 | 51.57549 | -0.97258 | 5583 ft | 193 kts | 171° |
| 2026-04-21 09:19 | 51.56199 | -0.97135 | 5130 ft | 194 kts | 171° |
| 2026-04-21 09:19 | 51.54849 | -0.97014 | 4671 ft | 194 kts | 171° |
| 2026-04-21 09:20 | 51.53500 | -0.96897 | 4239 ft | 193 kts | 171° |
| 2026-04-21 09:20 | 51.52194 | -0.96786 | 4016 ft | 181 kts | 171° |
| 2026-04-21 09:20 | 51.51008 | -0.96704 | 3982 ft | 161 kts | 171° |
| 2026-04-21 09:20 | 51.49794 | -0.96619 | 4024 ft | 195 kts | 171° |
| 2026-04-21 09:21 | 51.48427 | -0.96415 | 3964 ft | 196 kts | 163° |
| 2026-04-21 09:21 | 51.47369 | -0.95402 | 3981 ft | 171 kts | 122° |
| 2026-04-21 09:21 | 51.47179 | -0.93650 | 3994 ft | 159 kts | 76° |
| 2026-04-21 09:21 | 51.47426 | -0.91936 | 3982 ft | 158 kts | 81° |
| 2026-04-21 09:22 | 51.47533 | -0.90185 | 3982 ft | 158 kts | 85° |
| 2026-04-21 09:22 | 51.47576 | -0.88425 | 3978 ft | 158 kts | 86° |
| 2026-04-21 09:22 | 51.47592 | -0.86673 | 3982 ft | 162 kts | 88° |
| 2026-04-21 09:22 | 51.47597 | -0.84830 | 3987 ft | 167 kts | 88° |
| 2026-04-21 09:23 | 51.47605 | -0.82964 | 3982 ft | 168 kts | 88° |
| 2026-04-21 09:23 | 51.47615 | -0.81089 | 3986 ft | 168 kts | 88° |
| 2026-04-21 09:23 | 51.47630 | -0.79207 | 3932 ft | 169 kts | 88° |
| 2026-04-21 09:23 | 51.47647 | -0.77337 | 3743 ft | 167 kts | 88° |
| 2026-04-21 09:24 | 51.47654 | -0.75483 | 3516 ft | 166 kts | 89° |
| 2026-04-21 09:24 | 51.47657 | -0.73635 | 3269 ft | 166 kts | 88° |
| 2026-04-21 09:24 | 51.47665 | -0.71780 | 3030 ft | 166 kts | 87° |
| 2026-04-21 09:24 | 51.47672 | -0.69943 | 2796 ft | 165 kts | 87° |
| 2026-04-21 09:25 | 51.47678 | -0.68098 | 2563 ft | 164 kts | 87° |
| 2026-04-21 09:25 | 51.47684 | -0.66264 | 2337 ft | 165 kts | 87° |
| 2026-04-21 09:25 | 51.47691 | -0.64452 | 2117 ft | 164 kts | 86° |
| 2026-04-21 09:25 | 51.47698 | -0.62626 | 1883 ft | 164 kts | 86° |
| 2026-04-21 09:26 | 51.47705 | -0.60796 | 1650 ft | 165 kts | 86° |
| 2026-04-21 09:26 | 51.47711 | -0.58961 | 1416 ft | 164 kts | 86° |
| 2026-04-21 09:26 | 51.47718 | -0.57124 | 1196 ft | 165 kts | 86° |
| 2026-04-21 09:26 | 51.47726 | -0.55283 | 963 ft | 165 kts | 87° |
| 2026-04-21 09:27 | 51.47731 | -0.53434 | 737 ft | 165 kts | 86° |
| 2026-04-21 09:27 | 51.47738 | -0.51605 | 515 ft | 167 kts | 87° |
| 2026-04-21 09:27 | 51.47743 | -0.49789 | 286 ft | 165 kts | 86° |
| 2026-04-21 09:27 | 51.47748 | -0.47985 | 129 ft | 153 kts | 87° |
| 2026-04-21 09:28 | 51.47758 | -0.46441 | 98 ft | 119 kts | 88° |
| 2026-04-21 09:28 | 51.47759 | -0.45535 | 94 ft | 63 kts | 90° |
| 2026-04-21 09:28 | 51.47751 | -0.44976 | 98 ft | 33 kts | 108° |
| 2026-04-21 09:28 | 51.47675 | -0.44820 | 97 ft | 0 kts | 146° |
| 2026-04-21 09:29 | 51.47662 | -0.44806 | 97 ft | 6 kts | 146° |
| 2026-04-21 09:29 | 51.47655 | -0.44799 | 97 ft | 1 kts | 146° |
| 2026-04-21 09:29 | 51.47632 | -0.44785 | 97 ft | 3 kts | 186° |
| 2026-04-21 09:29 | 51.47618 | -0.44814 | 97 ft | 6 kts | 237° |
| 2026-04-21 09:30 | 51.47607 | -0.44909 | 94 ft | 12 kts | 263° |
| 2026-04-21 09:30 | 51.47600 | -0.45078 | 96 ft | 18 kts | 269° |
| 2026-04-21 09:30 | 51.47599 | -0.45314 | 92 ft | 24 kts | 270° |
| 2026-04-21 09:30 | 51.47597 | -0.45615 | 92 ft | 30 kts | 269° |
| 2026-04-21 09:31 | 51.47595 | -0.45975 | 95 ft | 34 kts | 269° |
| 2026-04-21 09:31 | 51.47594 | -0.46377 | 95 ft | 39 kts | 270° |
| 2026-04-21 09:31 | 51.47589 | -0.46788 | 93 ft | 24 kts | 259° |
| 2026-04-21 09:31 | 51.47497 | -0.46915 | 95 ft | 20 kts | 176° |
| 2026-04-21 09:32 | 51.47340 | -0.46871 | 95 ft | 25 kts | 172° |
| 2026-04-21 09:32 | 51.47148 | -0.46865 | 92 ft | 26 kts | 179° |
| 2026-04-21 09:32 | 51.47050 | -0.46864 | 94 ft | 15 kts | 180° |
| 2026-04-21 09:32 | 51.46984 | -0.46889 | 95 ft | 4 kts | 240° |
| 2026-04-21 09:33 | 51.46987 | -0.46941 | 94 ft | 7 kts | 269° |
| 2026-04-21 09:33 | 51.46986 | -0.46967 | 94 ft | 4 kts | 269° |
| 2026-04-21 09:33 | 51.46986 | -0.46989 | 94 ft | 0 kts | 269° |
| 2026-04-21 09:33 | 51.46986 | -0.46993 | 94 ft | 0 kts | 269° |